sensor_id;sensor_type;location;lat;lon;timestamp;temperature;humidity
8539;DHT22;4307;53.868;11.680;2022-09-09T00:00:26;15.10;99.90
8539;DHT22;4307;53.868;11.680;2022-09-09T00:03:00;15.10;99.90
8539;DHT22;4307;53.868;11.680;2022-09-09T00:05:33;15.20;99.90
8539;DHT22;4307;53.868;11.680;2022-09-09T00:08:03;15.20;99.90
8539;DHT22;4307;53.868;11.680;2022-09-09T00:10:33;15.20;99.90
8539;DHT22;4307;53.868;11.680;2022-09-09T00:13:06;15.20;99.90
8539;DHT22;4307;53.868;11.680;2022-09-09T00:15:46;15.30;99.90
8539;DHT22;4307;53.868;11.680;2022-09-09T00:18:23;15.30;99.90
8539;DHT22;4307;53.868;11.680;2022-09-09T00:20:57;15.30;99.90
8539;DHT22;4307;53.868;11.680;2022-09-09T00:23:30;15.30;99.90
8539;DHT22;4307;53.868;11.680;2022-09-09T00:26:04;15.30;99.90
8539;DHT22;4307;53.868;11.680;2022-09-09T00:28:35;15.30;99.90
8539;DHT22;4307;53.868;11.680;2022-09-09T00:31:12;15.30;99.90
8539;DHT22;4307;53.868;11.680;2022-09-09T00:33:39;15.40;99.90
8539;DHT22;4307;53.868;11.680;2022-09-09T00:36:13;15.40;99.90
8539;DHT22;4307;53.868;11.680;2022-09-09T00:38:43;15.40;99.90
8539;DHT22;4307;53.868;11.680;2022-09-09T00:41:17;15.40;99.90
8539;DHT22;4307;53.868;11.680;2022-09-09T00:43:54;15.40;99.90
8539;DHT22;4307;53.868;11.680;2022-09-09T00:46:41;15.40;99.90
8539;DHT22;4307;53.868;11.680;2022-09-09T00:49:23;15.40;99.90
8539;DHT22;4307;53.868;11.680;2022-09-09T00:52:02;15.40;99.90
8539;DHT22;4307;53.868;11.680;2022-09-09T00:54:38;15.40;99.90
8539;DHT22;4307;53.868;11.680;2022-09-09T00:57:14;15.40;99.90
8539;DHT22;4307;53.868;11.680;2022-09-09T00:59:48;15.40;99.90
8539;DHT22;4307;53.868;11.680;2022-09-09T01:02:25;15.40;99.90
8539;DHT22;4307;53.868;11.680;2022-09-09T01:04:53;15.40;99.90
8539;DHT22;4307;53.868;11.680;2022-09-09T01:07:22;15.50;99.90
8539;DHT22;4307;53.868;11.680;2022-09-09T01:09:55;15.50;99.90
8539;DHT22;4307;53.868;11.680;2022-09-09T01:12:30;15.50;99.90
8539;DHT22;4307;53.868;11.680;2022-09-09T01:15:08;15.50;99.90
8539;DHT22;4307;53.868;11.680;2022-09-09T01:17:48;15.50;99.90
8539;DHT22;4307;53.868;11.680;2022-09-09T01:20:19;15.50;99.90
8539;DHT22;4307;53.868;11.680;2022-09-09T01:22:59;15.50;99.90
8539;DHT22;4307;53.868;11.680;2022-09-09T01:26:04;15.50;99.90
8539;DHT22;4307;53.868;11.680;2022-09-09T01:28:34;15.50;99.90
8539;DHT22;4307;53.868;11.680;2022-09-09T01:31:03;15.60;99.90
8539;DHT22;4307;53.868;11.680;2022-09-09T01:33:30;15.60;99.90
8539;DHT22;4307;53.868;11.680;2022-09-09T01:36:00;15.60;99.90
8539;DHT22;4307;53.868;11.680;2022-09-09T01:38:30;15.60;99.90
8539;DHT22;4307;53.868;11.680;2022-09-09T01:40:58;15.60;99.90
8539;DHT22;4307;53.868;11.680;2022-09-09T01:43:27;15.60;99.90
8539;DHT22;4307;53.868;11.680;2022-09-09T01:45:56;15.60;99.90
8539;DHT22;4307;53.868;11.680;2022-09-09T01:48:25;15.60;99.90
8539;DHT22;4307;53.868;11.680;2022-09-09T01:50:52;15.60;99.90
8539;DHT22;4307;53.868;11.680;2022-09-09T01:53:21;15.60;99.90
8539;DHT22;4307;53.868;11.680;2022-09-09T01:55:57;15.60;99.90
8539;DHT22;4307;53.868;11.680;2022-09-09T01:58:34;15.60;99.90
8539;DHT22;4307;53.868;11.680;2022-09-09T02:01:08;15.60;99.90
8539;DHT22;4307;53.868;11.680;2022-09-09T02:03:41;15.60;99.90
8539;DHT22;4307;53.868;11.680;2022-09-09T02:06:19;15.60;99.90
8539;DHT22;4307;53.868;11.680;2022-09-09T02:08:50;15.60;99.90
8539;DHT22;4307;53.868;11.680;2022-09-09T02:11:19;15.60;99.90
8539;DHT22;4307;53.868;11.680;2022-09-09T02:13:48;15.60;99.90
8539;DHT22;4307;53.868;11.680;2022-09-09T02:16:22;15.70;99.90
8539;DHT22;4307;53.868;11.680;2022-09-09T02:18:52;15.70;99.90
8539;DHT22;4307;53.868;11.680;2022-09-09T02:21:21;15.70;99.90
8539;DHT22;4307;53.868;11.680;2022-09-09T02:23:50;15.60;99.90
8539;DHT22;4307;53.868;11.680;2022-09-09T02:26:19;15.70;99.90
8539;DHT22;4307;53.868;11.680;2022-09-09T02:28:51;15.70;99.90
8539;DHT22;4307;53.868;11.680;2022-09-09T02:31:22;15.70;99.90
8539;DHT22;4307;53.868;11.680;2022-09-09T02:33:52;15.70;99.90
8539;DHT22;4307;53.868;11.680;2022-09-09T02:36:22;15.80;99.90
8539;DHT22;4307;53.868;11.680;2022-09-09T02:38:50;15.80;99.90
8539;DHT22;4307;53.868;11.680;2022-09-09T02:41:21;15.90;99.90
8539;DHT22;4307;53.868;11.680;2022-09-09T02:43:50;15.80;99.90
8539;DHT22;4307;53.868;11.680;2022-09-09T02:46:34;15.80;99.90
8539;DHT22;4307;53.868;11.680;2022-09-09T02:49:09;15.80;99.90
8539;DHT22;4307;53.868;11.680;2022-09-09T02:51:40;15.80;99.90
8539;DHT22;4307;53.868;11.680;2022-09-09T02:54:19;15.80;99.90
8539;DHT22;4307;53.868;11.680;2022-09-09T02:56:51;15.80;99.90
8539;DHT22;4307;53.868;11.680;2022-09-09T02:59:21;15.80;99.90
8539;DHT22;4307;53.868;11.680;2022-09-09T03:01:47;15.80;99.90
8539;DHT22;4307;53.868;11.680;2022-09-09T03:04:14;15.80;99.90
8539;DHT22;4307;53.868;11.680;2022-09-09T03:06:41;15.80;99.90
8539;DHT22;4307;53.868;11.680;2022-09-09T03:09:08;15.80;99.90
8539;DHT22;4307;53.868;11.680;2022-09-09T03:11:36;15.80;99.90
8539;DHT22;4307;53.868;11.680;2022-09-09T03:14:04;15.80;99.90
8539;DHT22;4307;53.868;11.680;2022-09-09T03:16:32;15.70;99.90
8539;DHT22;4307;53.868;11.680;2022-09-09T03:18:59;15.70;99.90
8539;DHT22;4307;53.868;11.680;2022-09-09T03:21:26;15.70;99.90
8539;DHT22;4307;53.868;11.680;2022-09-09T03:23:53;15.70;99.90
8539;DHT22;4307;53.868;11.680;2022-09-09T03:26:19;15.70;99.90
8539;DHT22;4307;53.868;11.680;2022-09-09T03:28:46;15.70;99.90
8539;DHT22;4307;53.868;11.680;2022-09-09T03:31:13;15.60;99.90
8539;DHT22;4307;53.868;11.680;2022-09-09T03:33:41;15.60;99.90
8539;DHT22;4307;53.868;11.680;2022-09-09T03:36:08;15.60;99.90
8539;DHT22;4307;53.868;11.680;2022-09-09T03:38:35;15.60;99.90
8539;DHT22;4307;53.868;11.680;2022-09-09T03:41:02;15.50;99.90
8539;DHT22;4307;53.868;11.680;2022-09-09T03:43:31;15.50;99.90
8539;DHT22;4307;53.868;11.680;2022-09-09T03:45:58;15.50;99.90
8539;DHT22;4307;53.868;11.680;2022-09-09T03:48:25;15.50;99.90
8539;DHT22;4307;53.868;11.680;2022-09-09T03:50:55;15.50;99.90
8539;DHT22;4307;53.868;11.680;2022-09-09T03:53:24;15.50;99.90
8539;DHT22;4307;53.868;11.680;2022-09-09T03:55:53;15.50;99.90
8539;DHT22;4307;53.868;11.680;2022-09-09T03:58:21;15.50;99.90
8539;DHT22;4307;53.868;11.680;2022-09-09T04:00:54;15.50;99.90
8539;DHT22;4307;53.868;11.680;2022-09-09T04:03:20;15.50;99.90
8539;DHT22;4307;53.868;11.680;2022-09-09T04:05:48;15.40;99.90
8539;DHT22;4307;53.868;11.680;2022-09-09T04:08:16;15.40;99.90
8539;DHT22;4307;53.868;11.680;2022-09-09T04:10:44;15.40;99.90
8539;DHT22;4307;53.868;11.680;2022-09-09T04:13:12;15.40;99.90
8539;DHT22;4307;53.868;11.680;2022-09-09T04:15:40;15.40;99.90
8539;DHT22;4307;53.868;11.680;2022-09-09T04:18:07;15.40;99.90
8539;DHT22;4307;53.868;11.680;2022-09-09T04:20:34;15.40;99.90
8539;DHT22;4307;53.868;11.680;2022-09-09T04:23:01;15.40;99.90
8539;DHT22;4307;53.868;11.680;2022-09-09T04:25:30;15.30;99.90
8539;DHT22;4307;53.868;11.680;2022-09-09T04:27:57;15.30;99.90
8539;DHT22;4307;53.868;11.680;2022-09-09T04:30:24;15.40;99.90
8539;DHT22;4307;53.868;11.680;2022-09-09T04:32:52;15.40;99.90
8539;DHT22;4307;53.868;11.680;2022-09-09T04:35:19;15.40;99.90
8539;DHT22;4307;53.868;11.680;2022-09-09T04:37:46;15.30;99.90
8539;DHT22;4307;53.868;11.680;2022-09-09T04:40:13;15.30;99.90
8539;DHT22;4307;53.868;11.680;2022-09-09T04:42:41;15.30;99.90
8539;DHT22;4307;53.868;11.680;2022-09-09T04:45:09;15.30;99.90
8539;DHT22;4307;53.868;11.680;2022-09-09T04:47:38;15.30;99.90
8539;DHT22;4307;53.868;11.680;2022-09-09T04:50:05;15.30;99.90
8539;DHT22;4307;53.868;11.680;2022-09-09T04:52:33;15.30;99.90
8539;DHT22;4307;53.868;11.680;2022-09-09T04:55:00;15.30;99.90
8539;DHT22;4307;53.868;11.680;2022-09-09T04:57:27;15.30;99.90
8539;DHT22;4307;53.868;11.680;2022-09-09T04:59:55;15.40;99.90
8539;DHT22;4307;53.868;11.680;2022-09-09T05:02:22;15.30;99.90
8539;DHT22;4307;53.868;11.680;2022-09-09T05:04:48;15.40;99.90
8539;DHT22;4307;53.868;11.680;2022-09-09T05:07:15;15.40;99.90
8539;DHT22;4307;53.868;11.680;2022-09-09T05:09:42;15.40;99.90
8539;DHT22;4307;53.868;11.680;2022-09-09T05:12:10;15.40;99.90
8539;DHT22;4307;53.868;11.680;2022-09-09T05:14:36;15.40;99.90
8539;DHT22;4307;53.868;11.680;2022-09-09T05:17:04;15.40;99.90
8539;DHT22;4307;53.868;11.680;2022-09-09T05:19:31;15.50;99.90
8539;DHT22;4307;53.868;11.680;2022-09-09T05:21:58;15.50;99.90
8539;DHT22;4307;53.868;11.680;2022-09-09T05:24:24;15.50;99.90
8539;DHT22;4307;53.868;11.680;2022-09-09T05:26:51;15.50;99.90
8539;DHT22;4307;53.868;11.680;2022-09-09T05:29:17;15.50;99.90
8539;DHT22;4307;53.868;11.680;2022-09-09T05:31:45;15.50;99.90
8539;DHT22;4307;53.868;11.680;2022-09-09T05:34:13;15.50;99.90
8539;DHT22;4307;53.868;11.680;2022-09-09T05:36:40;15.50;99.90
8539;DHT22;4307;53.868;11.680;2022-09-09T05:39:06;15.50;99.90
8539;DHT22;4307;53.868;11.680;2022-09-09T05:41:33;15.50;99.90
8539;DHT22;4307;53.868;11.680;2022-09-09T05:44:01;15.50;99.90
8539;DHT22;4307;53.868;11.680;2022-09-09T05:46:29;15.50;99.90
8539;DHT22;4307;53.868;11.680;2022-09-09T05:48:55;15.60;99.90
8539;DHT22;4307;53.868;11.680;2022-09-09T05:51:27;15.60;99.90
8539;DHT22;4307;53.868;11.680;2022-09-09T05:53:55;15.60;99.90
8539;DHT22;4307;53.868;11.680;2022-09-09T05:56:25;15.60;99.90
8539;DHT22;4307;53.868;11.680;2022-09-09T05:58:53;15.70;99.90
8539;DHT22;4307;53.868;11.680;2022-09-09T06:01:21;15.60;99.90
8539;DHT22;4307;53.868;11.680;2022-09-09T06:03:49;15.60;99.90
8539;DHT22;4307;53.868;11.680;2022-09-09T06:06:18;15.70;99.90
8539;DHT22;4307;53.868;11.680;2022-09-09T06:08:49;15.70;99.90
8539;DHT22;4307;53.868;11.680;2022-09-09T06:11:18;15.70;99.90
8539;DHT22;4307;53.868;11.680;2022-09-09T06:13:46;15.70;99.90
8539;DHT22;4307;53.868;11.680;2022-09-09T06:16:14;15.70;99.90
8539;DHT22;4307;53.868;11.680;2022-09-09T06:18:41;15.70;99.90
8539;DHT22;4307;53.868;11.680;2022-09-09T06:21:11;15.70;99.90
8539;DHT22;4307;53.868;11.680;2022-09-09T06:23:41;15.70;99.90
8539;DHT22;4307;53.868;11.680;2022-09-09T06:26:11;15.70;99.90
8539;DHT22;4307;53.868;11.680;2022-09-09T06:28:38;15.70;99.90
8539;DHT22;4307;53.868;11.680;2022-09-09T06:31:07;15.70;99.90
8539;DHT22;4307;53.868;11.680;2022-09-09T06:33:36;15.70;99.90
8539;DHT22;4307;53.868;11.680;2022-09-09T06:36:07;15.70;99.90
8539;DHT22;4307;53.868;11.680;2022-09-09T06:38:37;15.80;99.90
8539;DHT22;4307;53.868;11.680;2022-09-09T06:41:04;15.80;99.90
8539;DHT22;4307;53.868;11.680;2022-09-09T06:43:32;15.90;99.90
8539;DHT22;4307;53.868;11.680;2022-09-09T06:46:03;15.90;99.90
8539;DHT22;4307;53.868;11.680;2022-09-09T06:48:30;16.00;99.90
8539;DHT22;4307;53.868;11.680;2022-09-09T06:51:01;16.00;99.90
8539;DHT22;4307;53.868;11.680;2022-09-09T06:53:28;16.10;99.90
8539;DHT22;4307;53.868;11.680;2022-09-09T06:55:55;16.10;99.90
8539;DHT22;4307;53.868;11.680;2022-09-09T06:58:21;16.10;99.90
8539;DHT22;4307;53.868;11.680;2022-09-09T07:00:49;16.10;99.90
8539;DHT22;4307;53.868;11.680;2022-09-09T07:03:16;16.10;99.90
8539;DHT22;4307;53.868;11.680;2022-09-09T07:05:43;16.00;99.90
8539;DHT22;4307;53.868;11.680;2022-09-09T07:08:11;16.00;99.90
8539;DHT22;4307;53.868;11.680;2022-09-09T07:10:37;16.00;99.90
8539;DHT22;4307;53.868;11.680;2022-09-09T07:13:04;16.00;99.90
8539;DHT22;4307;53.868;11.680;2022-09-09T07:15:31;16.00;99.90
8539;DHT22;4307;53.868;11.680;2022-09-09T07:18:02;16.10;99.90
8539;DHT22;4307;53.868;11.680;2022-09-09T07:20:28;16.10;99.90
8539;DHT22;4307;53.868;11.680;2022-09-09T07:22:55;16.10;99.90
8539;DHT22;4307;53.868;11.680;2022-09-09T07:25:24;16.20;99.90
8539;DHT22;4307;53.868;11.680;2022-09-09T07:27:52;16.20;99.90
8539;DHT22;4307;53.868;11.680;2022-09-09T07:30:18;16.30;99.90
8539;DHT22;4307;53.868;11.680;2022-09-09T07:32:45;16.40;99.90
8539;DHT22;4307;53.868;11.680;2022-09-09T07:35:13;16.40;99.90
8539;DHT22;4307;53.868;11.680;2022-09-09T07:37:40;16.40;99.90
8539;DHT22;4307;53.868;11.680;2022-09-09T07:40:07;16.40;99.90
8539;DHT22;4307;53.868;11.680;2022-09-09T07:42:34;16.40;99.90
8539;DHT22;4307;53.868;11.680;2022-09-09T07:45:00;16.40;99.90
8539;DHT22;4307;53.868;11.680;2022-09-09T07:47:27;16.50;99.90
8539;DHT22;4307;53.868;11.680;2022-09-09T07:49:54;16.50;99.90
8539;DHT22;4307;53.868;11.680;2022-09-09T07:52:22;16.60;99.90
8539;DHT22;4307;53.868;11.680;2022-09-09T07:54:49;16.70;99.90
8539;DHT22;4307;53.868;11.680;2022-09-09T07:57:16;16.70;99.90
8539;DHT22;4307;53.868;11.680;2022-09-09T07:59:43;16.80;99.90
8539;DHT22;4307;53.868;11.680;2022-09-09T08:02:10;16.90;99.90
8539;DHT22;4307;53.868;11.680;2022-09-09T08:04:37;16.90;99.90
8539;DHT22;4307;53.868;11.680;2022-09-09T08:07:03;17.00;99.90
8539;DHT22;4307;53.868;11.680;2022-09-09T08:09:32;17.10;99.90
8539;DHT22;4307;53.868;11.680;2022-09-09T08:11:59;17.30;99.90
8539;DHT22;4307;53.868;11.680;2022-09-09T08:14:27;17.40;99.90
8539;DHT22;4307;53.868;11.680;2022-09-09T08:16:53;17.50;99.90
8539;DHT22;4307;53.868;11.680;2022-09-09T08:19:20;17.60;99.90
8539;DHT22;4307;53.868;11.680;2022-09-09T08:21:47;17.60;99.90
8539;DHT22;4307;53.868;11.680;2022-09-09T08:24:14;17.70;99.90
8539;DHT22;4307;53.868;11.680;2022-09-09T08:26:44;18.00;99.90
8539;DHT22;4307;53.868;11.680;2022-09-09T08:29:12;18.20;99.90
8539;DHT22;4307;53.868;11.680;2022-09-09T08:31:41;18.30;99.90
8539;DHT22;4307;53.868;11.680;2022-09-09T08:34:08;18.30;99.90
8539;DHT22;4307;53.868;11.680;2022-09-09T08:36:38;18.30;99.90
8539;DHT22;4307;53.868;11.680;2022-09-09T08:39:06;18.40;99.90
8539;DHT22;4307;53.868;11.680;2022-09-09T08:41:56;18.40;99.90
8539;DHT22;4307;53.868;11.680;2022-09-09T08:44:32;18.50;99.90
8539;DHT22;4307;53.868;11.680;2022-09-09T08:47:10;18.40;99.90
8539;DHT22;4307;53.868;11.680;2022-09-09T08:49:57;18.40;99.90
8539;DHT22;4307;53.868;11.680;2022-09-09T08:52:29;18.50;99.90
8539;DHT22;4307;53.868;11.680;2022-09-09T08:54:59;18.50;99.90
8539;DHT22;4307;53.868;11.680;2022-09-09T08:57:31;18.60;99.90
8539;DHT22;4307;53.868;11.680;2022-09-09T08:59:58;18.60;99.90
8539;DHT22;4307;53.868;11.680;2022-09-09T09:02:30;18.90;99.90
8539;DHT22;4307;53.868;11.680;2022-09-09T09:05:07;19.10;99.90
8539;DHT22;4307;53.868;11.680;2022-09-09T09:07:44;19.40;99.90
8539;DHT22;4307;53.868;11.680;2022-09-09T09:10:18;19.70;99.90
8539;DHT22;4307;53.868;11.680;2022-09-09T09:12:48;20.10;99.90
8539;DHT22;4307;53.868;11.680;2022-09-09T09:15:19;20.50;99.90
8539;DHT22;4307;53.868;11.680;2022-09-09T09:17:47;20.80;99.90
8539;DHT22;4307;53.868;11.680;2022-09-09T09:20:18;20.90;99.90
8539;DHT22;4307;53.868;11.680;2022-09-09T09:22:48;20.90;99.90
8539;DHT22;4307;53.868;11.680;2022-09-09T09:25:18;20.90;99.90
8539;DHT22;4307;53.868;11.680;2022-09-09T09:27:52;20.80;99.90
8539;DHT22;4307;53.868;11.680;2022-09-09T09:30:25;20.80;99.90
8539;DHT22;4307;53.868;11.680;2022-09-09T09:32:54;20.80;99.90
8539;DHT22;4307;53.868;11.680;2022-09-09T09:35:22;20.60;99.90
8539;DHT22;4307;53.868;11.680;2022-09-09T09:37:49;20.50;99.90
8539;DHT22;4307;53.868;11.680;2022-09-09T09:40:18;20.40;99.90
8539;DHT22;4307;53.868;11.680;2022-09-09T09:42:51;20.40;99.90
8539;DHT22;4307;53.868;11.680;2022-09-09T09:45:26;20.40;99.90
8539;DHT22;4307;53.868;11.680;2022-09-09T09:47:58;20.40;99.90
8539;DHT22;4307;53.868;11.680;2022-09-09T09:50:25;20.40;99.90
8539;DHT22;4307;53.868;11.680;2022-09-09T09:52:56;20.50;99.90
8539;DHT22;4307;53.868;11.680;2022-09-09T09:55:24;20.60;99.90
8539;DHT22;4307;53.868;11.680;2022-09-09T09:57:53;20.80;99.90
8539;DHT22;4307;53.868;11.680;2022-09-09T10:00:22;20.90;99.90
8539;DHT22;4307;53.868;11.680;2022-09-09T10:02:50;21.10;99.90
8539;DHT22;4307;53.868;11.680;2022-09-09T10:05:19;21.30;99.90
8539;DHT22;4307;53.868;11.680;2022-09-09T10:07:47;21.50;99.90
8539;DHT22;4307;53.868;11.680;2022-09-09T10:10:28;21.70;99.90
8539;DHT22;4307;53.868;11.680;2022-09-09T10:13:05;22.00;99.90
8539;DHT22;4307;53.868;11.680;2022-09-09T10:15:41;22.10;99.90
8539;DHT22;4307;53.868;11.680;2022-09-09T10:21:13;22.70;99.90
8539;DHT22;4307;53.868;11.680;2022-09-09T10:24:12;22.90;99.90
8539;DHT22;4307;53.868;11.680;2022-09-09T10:26:47;22.90;99.90
8539;DHT22;4307;53.868;11.680;2022-09-09T10:29:34;22.70;99.90
8539;DHT22;4307;53.868;11.680;2022-09-09T10:32:19;22.60;99.90
8539;DHT22;4307;53.868;11.680;2022-09-09T10:34:56;22.70;99.90
8539;DHT22;4307;53.868;11.680;2022-09-09T10:37:37;22.90;99.90
8539;DHT22;4307;53.868;11.680;2022-09-09T10:40:19;22.80;99.90
8539;DHT22;4307;53.868;11.680;2022-09-09T10:42:48;22.70;99.90
8539;DHT22;4307;53.868;11.680;2022-09-09T10:45:18;22.60;99.90
8539;DHT22;4307;53.868;11.680;2022-09-09T10:47:59;22.90;99.90
8539;DHT22;4307;53.868;11.680;2022-09-09T10:50:40;23.00;99.90
8539;DHT22;4307;53.868;11.680;2022-09-09T10:53:14;23.10;99.90
8539;DHT22;4307;53.868;11.680;2022-09-09T10:55:50;23.40;99.90
8539;DHT22;4307;53.868;11.680;2022-09-09T10:58:21;23.60;99.90
8539;DHT22;4307;53.868;11.680;2022-09-09T11:00:55;23.50;99.90
8539;DHT22;4307;53.868;11.680;2022-09-09T11:03:25;23.60;99.90
8539;DHT22;4307;53.868;11.680;2022-09-09T11:05:55;23.40;99.90
8539;DHT22;4307;53.868;11.680;2022-09-09T11:08:25;23.10;99.90
8539;DHT22;4307;53.868;11.680;2022-09-09T11:10:58;22.90;99.90
8539;DHT22;4307;53.868;11.680;2022-09-09T11:13:30;23.10;99.90
8539;DHT22;4307;53.868;11.680;2022-09-09T11:16:05;23.40;99.90
8539;DHT22;4307;53.868;11.680;2022-09-09T11:18:41;23.20;99.90
8539;DHT22;4307;53.868;11.680;2022-09-09T11:21:16;23.10;99.90
8539;DHT22;4307;53.868;11.680;2022-09-09T11:23:47;23.00;99.90
8539;DHT22;4307;53.868;11.680;2022-09-09T11:26:20;23.30;99.90
8539;DHT22;4307;53.868;11.680;2022-09-09T11:28:58;23.50;99.90
8539;DHT22;4307;53.868;11.680;2022-09-09T11:31:44;23.90;99.90
8539;DHT22;4307;53.868;11.680;2022-09-09T11:34:27;24.00;99.90
8539;DHT22;4307;53.868;11.680;2022-09-09T11:37:12;24.20;99.90
8539;DHT22;4307;53.868;11.680;2022-09-09T11:42:41;25.20;99.90
8539;DHT22;4307;53.868;11.680;2022-09-09T11:45:10;25.10;99.90
8539;DHT22;4307;53.868;11.680;2022-09-09T11:47:39;25.00;99.90
8539;DHT22;4307;53.868;11.680;2022-09-09T11:50:22;25.20;99.90
8539;DHT22;4307;53.868;11.680;2022-09-09T11:53:04;25.00;99.90
8539;DHT22;4307;53.868;11.680;2022-09-09T11:55:33;24.90;99.90
8539;DHT22;4307;53.868;11.680;2022-09-09T11:58:03;24.80;99.90
8539;DHT22;4307;53.868;11.680;2022-09-09T12:00:34;24.60;99.30
8539;DHT22;4307;53.868;11.680;2022-09-09T12:03:03;24.50;99.40
8539;DHT22;4307;53.868;11.680;2022-09-09T12:05:39;24.80;99.30
8539;DHT22;4307;53.868;11.680;2022-09-09T12:08:09;25.10;98.60
8539;DHT22;4307;53.868;11.680;2022-09-09T12:10:39;25.60;98.10
8539;DHT22;4307;53.868;11.680;2022-09-09T12:13:16;25.90;97.30
8539;DHT22;4307;53.868;11.680;2022-09-09T12:15:49;26.50;96.80
8539;DHT22;4307;53.868;11.680;2022-09-09T12:18:22;27.00;95.80
8539;DHT22;4307;53.868;11.680;2022-09-09T12:20:54;27.30;95.20
8539;DHT22;4307;53.868;11.680;2022-09-09T12:23:34;27.50;94.70
8539;DHT22;4307;53.868;11.680;2022-09-09T12:26:21;27.40;93.30
8539;DHT22;4307;53.868;11.680;2022-09-09T12:28:58;26.90;92.80
8539;DHT22;4307;53.868;11.680;2022-09-09T12:31:31;27.00;93.00
8539;DHT22;4307;53.868;11.680;2022-09-09T12:34:09;27.40;92.90
8539;DHT22;4307;53.868;11.680;2022-09-09T12:36:40;27.60;92.20
8539;DHT22;4307;53.868;11.680;2022-09-09T12:39:17;27.90;91.90
8539;DHT22;4307;53.868;11.680;2022-09-09T12:41:51;28.00;91.40
8539;DHT22;4307;53.868;11.680;2022-09-09T12:44:23;28.30;90.80
8539;DHT22;4307;53.868;11.680;2022-09-09T12:46:51;28.30;90.60
8539;DHT22;4307;53.868;11.680;2022-09-09T12:49:30;28.30;90.70
8539;DHT22;4307;53.868;11.680;2022-09-09T12:52:01;28.50;90.60
8539;DHT22;4307;53.868;11.680;2022-09-09T12:54:31;28.70;90.20
8539;DHT22;4307;53.868;11.680;2022-09-09T12:56:57;28.90;89.20
8539;DHT22;4307;53.868;11.680;2022-09-09T12:59:26;28.90;89.00
8539;DHT22;4307;53.868;11.680;2022-09-09T13:01:56;29.10;88.60
8539;DHT22;4307;53.868;11.680;2022-09-09T13:04:23;28.90;87.20
8539;DHT22;4307;53.868;11.680;2022-09-09T13:06:51;28.20;86.30
8539;DHT22;4307;53.868;11.680;2022-09-09T13:09:18;27.30;87.10
8539;DHT22;4307;53.868;11.680;2022-09-09T13:11:48;26.40;88.70
8539;DHT22;4307;53.868;11.680;2022-09-09T13:14:17;26.40;90.10
8539;DHT22;4307;53.868;11.680;2022-09-09T13:16:55;26.60;90.30
8539;DHT22;4307;53.868;11.680;2022-09-09T13:19:22;26.60;89.80
8539;DHT22;4307;53.868;11.680;2022-09-09T13:21:52;26.30;89.80
8539;DHT22;4307;53.868;11.680;2022-09-09T13:24:27;26.60;90.10
8539;DHT22;4307;53.868;11.680;2022-09-09T13:26:56;26.40;89.40
8539;DHT22;4307;53.868;11.680;2022-09-09T13:29:23;26.20;89.90
8539;DHT22;4307;53.868;11.680;2022-09-09T13:31:50;26.40;90.10
8539;DHT22;4307;53.868;11.680;2022-09-09T13:34:26;26.80;89.10
8539;DHT22;4307;53.868;11.680;2022-09-09T13:36:58;27.20;88.60
8539;DHT22;4307;53.868;11.680;2022-09-09T13:39:26;27.00;88.20
8539;DHT22;4307;53.868;11.680;2022-09-09T13:41:53;26.90;88.70
8539;DHT22;4307;53.868;11.680;2022-09-09T13:44:21;26.50;88.70
8539;DHT22;4307;53.868;11.680;2022-09-09T13:47:00;25.80;89.50
8539;DHT22;4307;53.868;11.680;2022-09-09T13:49:29;25.20;90.30
8539;DHT22;4307;53.868;11.680;2022-09-09T13:52:05;24.80;90.90
8539;DHT22;4307;53.868;11.680;2022-09-09T13:54:34;24.70;91.70
8539;DHT22;4307;53.868;11.680;2022-09-09T13:57:01;24.80;91.60
8539;DHT22;4307;53.868;11.680;2022-09-09T13:59:30;24.80;91.90
8539;DHT22;4307;53.868;11.680;2022-09-09T14:01:57;25.00;92.30
8539;DHT22;4307;53.868;11.680;2022-09-09T14:04:23;25.30;92.20
8539;DHT22;4307;53.868;11.680;2022-09-09T14:06:50;25.30;92.00
8539;DHT22;4307;53.868;11.680;2022-09-09T14:09:18;25.20;91.90
8539;DHT22;4307;53.868;11.680;2022-09-09T14:11:45;25.00;91.70
8539;DHT22;4307;53.868;11.680;2022-09-09T14:14:12;24.80;92.10
8539;DHT22;4307;53.868;11.680;2022-09-09T14:16:39;24.60;92.30
8539;DHT22;4307;53.868;11.680;2022-09-09T14:19:05;24.40;92.30
8539;DHT22;4307;53.868;11.680;2022-09-09T14:21:32;24.30;92.30
8539;DHT22;4307;53.868;11.680;2022-09-09T14:23:58;24.20;92.80
8539;DHT22;4307;53.868;11.680;2022-09-09T14:26:26;24.20;92.90
8539;DHT22;4307;53.868;11.680;2022-09-09T14:28:54;24.00;92.80
8539;DHT22;4307;53.868;11.680;2022-09-09T14:31:21;23.90;93.20
8539;DHT22;4307;53.868;11.680;2022-09-09T14:33:48;23.80;93.20
8539;DHT22;4307;53.868;11.680;2022-09-09T14:36:16;23.70;93.30
8539;DHT22;4307;53.868;11.680;2022-09-09T14:38:43;23.50;93.40
8539;DHT22;4307;53.868;11.680;2022-09-09T14:41:10;23.50;93.90
8539;DHT22;4307;53.868;11.680;2022-09-09T14:43:39;23.40;94.10
8539;DHT22;4307;53.868;11.680;2022-09-09T14:46:06;23.30;94.20
8539;DHT22;4307;53.868;11.680;2022-09-09T14:48:33;23.20;94.50
8539;DHT22;4307;53.868;11.680;2022-09-09T14:51:05;23.20;94.70
8539;DHT22;4307;53.868;11.680;2022-09-09T14:53:32;23.20;94.60
8539;DHT22;4307;53.868;11.680;2022-09-09T14:56:04;23.10;94.70
8539;DHT22;4307;53.868;11.680;2022-09-09T14:58:31;23.00;95.00
8539;DHT22;4307;53.868;11.680;2022-09-09T15:01:03;23.00;95.10
8539;DHT22;4307;53.868;11.680;2022-09-09T15:03:30;22.80;95.00
8539;DHT22;4307;53.868;11.680;2022-09-09T15:05:57;22.70;95.30
8539;DHT22;4307;53.868;11.680;2022-09-09T15:08:24;22.50;95.60
8539;DHT22;4307;53.868;11.680;2022-09-09T15:10:59;22.40;96.50
8539;DHT22;4307;53.868;11.680;2022-09-09T15:13:26;21.70;97.90
8539;DHT22;4307;53.868;11.680;2022-09-09T15:15:52;21.10;99.00
8539;DHT22;4307;53.868;11.680;2022-09-09T15:18:21;20.60;99.90
8539;DHT22;4307;53.868;11.680;2022-09-09T15:20:48;20.30;99.90
8539;DHT22;4307;53.868;11.680;2022-09-09T15:23:14;20.20;99.90
8539;DHT22;4307;53.868;11.680;2022-09-09T15:25:50;20.00;99.90
8539;DHT22;4307;53.868;11.680;2022-09-09T15:28:17;19.90;99.90
8539;DHT22;4307;53.868;11.680;2022-09-09T15:30:46;19.90;99.90
8539;DHT22;4307;53.868;11.680;2022-09-09T15:33:13;19.90;99.90
8539;DHT22;4307;53.868;11.680;2022-09-09T15:35:41;19.90;99.90
8539;DHT22;4307;53.868;11.680;2022-09-09T15:38:07;19.90;99.90
8539;DHT22;4307;53.868;11.680;2022-09-09T15:40:34;19.80;99.90
8539;DHT22;4307;53.868;11.680;2022-09-09T15:43:01;19.70;99.90
8539;DHT22;4307;53.868;11.680;2022-09-09T15:45:28;19.60;99.90
8539;DHT22;4307;53.868;11.680;2022-09-09T15:47:58;19.60;99.90
8539;DHT22;4307;53.868;11.680;2022-09-09T15:50:25;19.50;99.90
8539;DHT22;4307;53.868;11.680;2022-09-09T15:52:53;19.50;99.90
8539;DHT22;4307;53.868;11.680;2022-09-09T15:55:20;19.50;99.90
8539;DHT22;4307;53.868;11.680;2022-09-09T15:57:47;19.50;99.90
8539;DHT22;4307;53.868;11.680;2022-09-09T16:00:14;19.50;99.90
8539;DHT22;4307;53.868;11.680;2022-09-09T16:02:41;19.60;99.90
8539;DHT22;4307;53.868;11.680;2022-09-09T16:05:09;19.70;99.90
8539;DHT22;4307;53.868;11.680;2022-09-09T16:07:35;19.80;99.90
8539;DHT22;4307;53.868;11.680;2022-09-09T16:10:04;19.90;99.90